Terminal Aerodrome Forecast
Issued by NWS Columbia, SC

Home | Current Version | Previous Version | Text Only | Print | Product List | Glossary On
Versions: 1 2 3 4 5 6 7 8 9 10 11 12 13 14 15 16 17 18 19 20 21 22 23 24 25 26 27 28 29 30 31 32 33 34 35 36 37 38 39 40 41 42 43
370
FTAK31 PAJN 121750
TAFAGS
TAF
PAGS 121750Z 1218/1318 10005KT P6SM -SHRA SCT025 BKN070
     FM122000 12008KT P6SM VCSH BKN070
     FM130300 10004KT P6SM VCSH BKN040 OVC070
     FM130900 VRB03KT P6SM VCSH BKN040 OVC060
     FM131300 34004KT P6SM VCSH OVC050
     FM131600 VRB03KT P6SM -SHRA SCT025 OVC040
      AMD LTD TO CLD VIS AND WIND=

USA.gov is the U.S. government's official web portal to all federal, state and local government web resources and services.